createdAt,value
2017-10-28T00:04:19.849Z,0.60
2017-10-28T00:09:24.538Z,0.57
2017-10-28T00:14:29.216Z,0.65
2017-10-28T00:19:35.814Z,0.50
2017-10-28T00:24:43.130Z,0.50
2017-10-28T00:29:48.988Z,0.73
2017-10-28T00:34:59.836Z,0.60
2017-10-28T00:40:04.516Z,0.62
2017-10-28T00:45:09.209Z,0.50
2017-10-28T00:50:13.905Z,0.50
2017-10-28T00:55:18.831Z,0.50
2017-10-28T01:00:24.171Z,0.43
2017-10-28T01:05:28.849Z,0.55
2017-10-28T01:10:33.588Z,0.47
2017-10-28T01:15:38.240Z,0.70
2017-10-28T01:20:43.326Z,0.60
2017-10-28T01:25:47.959Z,0.68
2017-10-28T01:30:53.030Z,0.50
2017-10-28T01:35:58.054Z,0.43
2017-10-28T01:41:03.311Z,0.60
2017-10-28T01:46:08.126Z,0.50
2017-10-28T01:51:13.658Z,0.40
2017-10-28T01:56:18.107Z,0.52
2017-10-28T02:01:23.645Z,0.40
2017-10-28T02:06:28.693Z,0.60
2017-10-28T02:11:33.148Z,0.55
2017-10-28T02:16:38.192Z,0.50
2017-10-28T02:21:43.204Z,0.37
2017-10-28T02:26:48.449Z,0.40
2017-10-28T02:31:53.948Z,0.30
2017-10-28T02:36:59.208Z,0.75
2017-10-28T02:42:03.657Z,0.30
2017-10-28T02:47:09.407Z,0.37
2017-10-28T02:52:14.656Z,0.50
2017-10-28T02:57:19.401Z,0.35
2017-10-28T03:02:24.658Z,0.40
2017-10-28T03:07:29.131Z,0.37
2017-10-28T03:12:34.375Z,0.30
2017-10-28T03:17:39.503Z,0.40
2017-10-28T03:22:44.995Z,0.30
2017-10-28T03:27:49.641Z,0.40
2017-10-28T03:32:55.053Z,0.30
2017-10-28T03:38:00.317Z,0.43
2017-10-28T03:43:05.397Z,0.50
2017-10-28T03:48:10.407Z,0.35
2017-10-28T03:53:14.890Z,0.40
2017-10-28T03:58:20.220Z,0.22
2017-10-28T04:03:24.988Z,0.30
2017-10-28T04:08:30.213Z,0.30
2017-10-28T04:13:35.408Z,0.40
2017-10-28T04:18:40.849Z,0.40
2017-10-28T04:23:45.580Z,0.30
2017-10-28T04:28:50.842Z,0.40
2017-10-28T04:33:55.899Z,0.30
2017-10-28T04:39:00.708Z,0.40
2017-10-28T04:44:05.375Z,0.30
2017-10-28T04:49:10.784Z,0.25
2017-10-28T04:54:15.828Z,0.30
2017-10-28T04:59:21.252Z,0.30
2017-10-28T05:04:27.020Z,0.30
2017-10-28T05:09:32.547Z,0.30
2017-10-28T05:14:37.322Z,0.30
2017-10-28T05:19:42.996Z,0.30
2017-10-28T05:24:48.504Z,0.30
2017-10-28T05:29:53.547Z,0.37
2017-10-28T05:34:59.045Z,0.30
2017-10-28T05:40:03.708Z,0.30
2017-10-28T05:45:08.970Z,0.22
2017-10-28T05:50:13.456Z,0.30
2017-10-28T05:55:18.852Z,0.43
2017-10-28T06:00:23.559Z,0.35
2017-10-28T06:05:29.334Z,0.30
2017-10-28T06:10:34.607Z,0.20
2017-10-28T06:15:39.067Z,0.25
2017-10-28T06:20:44.422Z,0.20
2017-10-28T06:25:49.545Z,0.40
2017-10-28T06:30:54.961Z,0.20
2017-10-28T06:35:59.630Z,0.20
2017-10-28T06:41:05.214Z,0.22
2017-10-28T06:46:09.660Z,0.30
2017-10-28T06:51:14.933Z,0.30
2017-10-28T06:56:19.967Z,0.30
2017-10-28T07:01:35.107Z,0.30
2017-10-28T07:06:46.389Z,0.30
2017-10-28T07:11:50.840Z,0.20
2017-10-28T07:16:56.096Z,0.20
2017-10-28T07:22:01.150Z,0.30
2017-10-28T07:27:06.186Z,0.15
2017-10-28T07:32:11.241Z,0.20
2017-10-28T07:37:16.282Z,0.30
2017-10-28T07:42:21.388Z,0.30
2017-10-28T07:47:26.888Z,0.28
2017-10-28T07:52:31.928Z,0.25
2017-10-28T07:57:36.754Z,0.22
2017-10-28T08:02:42.017Z,0.20
2017-10-28T08:07:47.383Z,0.20
2017-10-28T08:12:52.745Z,0.20
2017-10-28T08:17:57.189Z,0.20
2017-10-28T08:23:02.606Z,0.20
2017-10-28T08:28:07.399Z,0.20
2017-10-28T08:33:12.470Z,0.20
2017-10-28T08:38:17.722Z,0.20
2017-10-28T08:43:23.307Z,0.20
2017-10-28T08:48:28.569Z,0.20
2017-10-28T08:53:34.169Z,0.30
2017-10-28T08:58:38.732Z,0.20
2017-10-28T09:03:43.961Z,0.20
2017-10-28T09:08:48.998Z,0.22
2017-10-28T09:13:54.034Z,0.30
2017-10-28T09:18:58.526Z,0.20
2017-10-28T09:24:03.461Z,0.20
2017-10-28T09:29:08.504Z,0.20
2017-10-28T09:34:13.755Z,0.25
2017-10-28T09:39:19.126Z,0.30
2017-10-28T09:44:24.171Z,0.20
2017-10-28T09:49:29.349Z,0.30
2017-10-28T09:54:34.665Z,0.20
2017-10-28T09:59:39.122Z,0.40
2017-10-28T10:04:44.600Z,0.20
2017-10-28T10:09:49.822Z,0.30
2017-10-28T10:14:55.036Z,6.00
2017-10-28T10:20:00.283Z,1.05
2017-10-28T10:25:04.743Z,0.40
2017-10-28T10:30:10.016Z,1.83
2017-10-28T10:35:15.219Z,2.08
2017-10-28T10:51:20.306Z,0.28
2017-10-28T10:56:25.543Z,0.20
2017-10-28T11:01:30.636Z,0.45
2017-10-28T11:06:35.647Z,0.20
2017-10-28T11:11:40.538Z,0.20
2017-10-28T11:16:45.206Z,0.35
2017-10-28T11:21:50.443Z,0.50
2017-10-28T11:26:55.495Z,0.20
2017-10-28T11:35:04.124Z,0.20
2017-10-28T11:40:09.139Z,0.30
2017-10-28T11:45:14.311Z,0.13
2017-10-28T11:50:19.002Z,0.20
2017-10-28T11:55:24.419Z,0.85
2017-10-28T12:00:29.526Z,7.87
2017-10-28T12:05:34.553Z,1.25
2017-10-28T12:10:39.683Z,1.92
2017-10-28T12:15:44.734Z,1.85
2017-10-28T12:20:49.763Z,0.60
2017-10-28T12:25:55.327Z,0.52
2017-10-28T12:31:00.909Z,0.50
2017-10-28T12:36:05.971Z,0.40
2017-10-28T12:41:11.010Z,0.40
2017-10-28T12:46:16.055Z,0.30
2017-10-28T12:51:21.211Z,0.62
2017-10-28T12:56:24.931Z,0.40
2017-10-28T13:01:29.575Z,0.30
2017-10-28T13:06:33.479Z,0.30
2017-10-28T13:11:37.417Z,0.35
2017-10-28T13:16:41.339Z,1.62
2017-10-28T13:21:45.232Z,5.80
2017-10-28T13:26:49.465Z,6.85
2017-10-28T13:31:54.440Z,7.03
2017-10-28T13:36:59.594Z,8.00
2017-10-28T13:42:03.517Z,8.35
2017-10-28T13:47:08.259Z,7.30
2017-10-28T13:52:12.909Z,6.50
2017-10-28T13:57:16.830Z,6.97
2017-10-28T14:02:22.266Z,6.35
2017-10-28T14:07:27.026Z,5.80
2017-10-28T14:12:31.781Z,5.97
2017-10-28T14:17:36.705Z,5.90
2017-10-28T14:22:42.498Z,5.32
2017-10-28T14:27:47.944Z,5.57
2017-10-28T14:32:52.686Z,4.43
2017-10-28T14:37:57.951Z,5.43
2017-10-28T14:43:02.994Z,4.62
2017-10-28T14:48:08.140Z,4.43
2017-10-28T14:53:12.706Z,4.45
2017-10-28T14:58:17.735Z,4.40
2017-10-28T15:03:22.479Z,4.65
2017-10-28T15:08:27.718Z,4.30
2017-10-28T15:13:32.266Z,3.92
2017-10-28T15:18:37.623Z,3.30
2017-10-28T15:23:42.663Z,4.03
2017-10-28T15:28:47.790Z,3.87
2017-10-28T15:33:52.364Z,3.72
2017-10-28T15:38:57.618Z,3.83
2017-10-28T15:44:02.098Z,3.50
2017-10-28T15:49:07.109Z,4.18
2017-10-28T15:54:12.472Z,3.10
2017-10-28T15:59:17.500Z,3.65
2017-10-28T16:04:22.049Z,3.00
2017-10-28T16:09:26.741Z,3.28
2017-10-28T16:14:32.056Z,3.33
2017-10-28T16:19:36.585Z,2.92
2017-10-28T16:24:41.660Z,2.90
2017-10-28T16:29:47.228Z,2.67
2017-10-28T16:34:52.066Z,3.58
2017-10-28T16:39:57.320Z,2.65
2017-10-28T16:48:56.595Z,2.50
2017-10-28T16:54:01.856Z,3.03
2017-10-28T16:59:06.322Z,2.33
2017-10-28T17:04:11.575Z,2.10
2017-10-28T17:09:16.045Z,2.37
2017-10-28T17:14:21.318Z,2.65
2017-10-28T17:19:26.144Z,2.40
2017-10-28T17:24:31.388Z,3.10
2017-10-28T17:29:36.253Z,2.03
2017-10-28T17:34:41.566Z,2.67
2017-10-28T17:39:46.647Z,2.22
2017-10-28T17:44:51.460Z,2.17
2017-10-28T17:49:56.132Z,2.00
2017-10-28T17:55:01.680Z,2.35
2017-10-28T18:00:06.524Z,1.87
2017-10-28T18:05:11.547Z,2.25
2017-10-28T18:10:16.235Z,2.20
2017-10-28T18:15:21.883Z,1.90
2017-10-28T18:20:26.621Z,2.03
2017-10-28T18:25:31.264Z,1.67
2017-10-28T18:30:35.936Z,1.77
2017-10-28T18:35:40.270Z,1.77
2017-10-28T18:40:45.017Z,2.10
2017-10-28T18:45:49.696Z,1.83
2017-10-28T18:50:55.345Z,1.98
2017-10-28T18:55:59.262Z,2.03
2017-10-28T19:01:04.052Z,1.23
2017-10-28T19:06:07.955Z,1.87
2017-10-28T19:11:11.907Z,1.73
2017-10-28T19:16:17.328Z,1.87
2017-10-28T19:21:22.103Z,1.90
2017-10-28T19:26:26.922Z,1.48
2017-10-28T19:31:31.577Z,1.55
2017-10-28T19:36:36.260Z,1.73
2017-10-28T19:41:40.926Z,1.67
2017-10-28T19:46:46.125Z,1.33
2017-10-28T19:51:50.790Z,1.40
2017-10-28T19:56:55.821Z,1.60
2017-10-28T20:02:00.467Z,1.50
2017-10-28T20:07:06.317Z,1.45
2017-10-28T20:12:11.503Z,1.08
2017-10-28T20:17:16.569Z,1.30
2017-10-28T20:22:21.231Z,1.15
2017-10-28T20:27:25.887Z,1.05
2017-10-28T20:32:30.559Z,1.48
2017-10-28T20:37:35.824Z,1.05
2017-10-28T20:42:41.226Z,1.05
2017-10-28T20:47:46.110Z,1.23
2017-10-28T20:52:51.139Z,1.08
2017-10-28T20:57:55.923Z,0.90
2017-10-28T21:03:01.343Z,1.17
2017-10-28T21:08:06.822Z,1.45
2017-10-28T21:13:11.532Z,0.90
2017-10-28T21:18:16.181Z,1.33
2017-10-28T21:23:21.223Z,0.70
2017-10-28T21:28:25.994Z,1.00
2017-10-28T21:33:31.417Z,1.20
2017-10-28T21:38:36.254Z,0.77
2017-10-28T21:43:40.939Z,1.08
2017-10-28T21:48:46.324Z,1.05
2017-10-28T21:53:51.205Z,0.80
2017-10-28T21:58:55.994Z,0.80
2017-10-28T22:04:01.420Z,0.90
2017-10-28T22:09:06.085Z,0.77
2017-10-28T22:14:11.449Z,0.80
2017-10-28T22:19:15.951Z,0.70
2017-10-28T22:24:20.635Z,0.55
2017-10-28T22:29:25.394Z,0.88
2017-10-28T22:34:30.813Z,0.90
2017-10-28T22:39:35.684Z,0.90
2017-10-28T22:44:40.336Z,1.00
2017-10-28T22:49:45.466Z,0.90
2017-10-28T22:54:50.311Z,0.55
2017-10-28T22:59:55.768Z,0.82
2017-10-28T23:05:00.701Z,1.00
2017-10-28T23:10:05.665Z,0.70
2017-10-28T23:15:11.345Z,0.70
2017-10-28T23:20:16.041Z,0.85
2017-10-28T23:25:21.171Z,0.80
2017-10-28T23:30:25.865Z,0.60
2017-10-28T23:35:30.821Z,0.70
2017-10-28T23:40:36.043Z,0.60
2017-10-28T23:45:40.921Z,0.77
2017-10-28T23:50:45.655Z,0.70
2017-10-28T23:55:50.649Z,0.85
